createdAt,value
2017-04-14T00:00:03.679Z,99.99
2017-04-14T00:05:03.623Z,99.99
2017-04-14T00:10:03.695Z,99.99
2017-04-14T00:15:03.609Z,99.91
2017-04-14T00:20:03.415Z,99.53
2017-04-14T00:25:03.163Z,99.44
2017-04-14T00:30:02.755Z,98.77
2017-04-14T00:35:10.614Z,98.77
2017-04-14T00:40:03.454Z,98.11
2017-04-14T00:45:03.294Z,97.83
2017-04-14T00:50:03.269Z,97.45
2017-04-14T00:55:03.023Z,97.35
2017-04-14T01:00:02.968Z,96.97
2017-04-14T01:05:03.647Z,96.26
2017-04-14T01:10:03.664Z,95.6
2017-04-14T01:15:03.449Z,95.12
2017-04-14T01:20:03.265Z,95.12
2017-04-14T01:25:02.924Z,94.65
2017-04-14T01:30:03.599Z,93.99
2017-04-14T01:35:03.571Z,93.8
2017-04-14T01:40:03.320Z,93.7
2017-04-14T01:45:02.963Z,92.38
2017-04-14T01:50:02.766Z,92.19
2017-04-14T01:55:03.730Z,91.14
2017-04-14T02:00:03.364Z,90.77
2017-04-14T02:05:03.155Z,90.67
2017-04-14T02:10:02.786Z,90.67
2017-04-14T02:15:03.523Z,90.67
2017-04-14T02:20:03.569Z,90.29
2017-04-14T02:26:06.327Z,89.34
2017-04-14T02:30:02.955Z,88.96
2017-04-14T02:35:03.581Z,88.59
2017-04-14T02:40:03.419Z,88.11
2017-04-14T02:45:03.273Z,87.35
2017-04-14T02:50:03.272Z,86.69
2017-04-14T02:55:02.861Z,86.6
2017-04-14T03:00:03.633Z,86.79
2017-04-14T03:05:03.439Z,86.41
2017-04-14T03:10:03.108Z,86.12
2017-04-14T03:15:02.872Z,85.55
2017-04-14T03:20:03.766Z,84.99
2017-04-14T03:25:03.460Z,84.7
2017-04-14T03:30:03.090Z,84.32
2017-04-14T03:35:03.912Z,83.75
2017-04-14T03:40:03.625Z,83.56
2017-04-14T03:45:03.513Z,83.47
2017-04-14T03:50:03.174Z,83.47
2017-04-14T03:55:02.761Z,83.28
2017-04-14T04:00:03.561Z,83.56
2017-04-14T04:05:03.323Z,83.28
2017-04-14T04:10:03.456Z,82.9
2017-04-14T04:15:03.458Z,82.52
2017-04-14T04:20:03.447Z,82.33
2017-04-14T04:25:03.252Z,82.05
2017-04-14T04:30:02.999Z,81.99
2017-04-14T04:35:03.693Z,81.81
2017-04-14T04:40:03.370Z,81.62
2017-04-14T04:45:02.996Z,81.05
2017-04-14T04:50:03.571Z,80.86
2017-04-14T04:55:03.496Z,80.86
2017-04-14T05:00:03.172Z,80.19
2017-04-14T05:05:02.766Z,80.48
2017-04-14T05:10:03.431Z,80.29
2017-04-14T05:15:03.000Z,80.48
2017-04-14T05:20:02.731Z,80.24
2017-04-14T05:25:03.346Z,80.14
2017-04-14T05:30:03.185Z,80.04
2017-04-14T05:35:02.929Z,80.14
2017-04-14T05:40:03.694Z,80.14
2017-04-14T05:45:03.524Z,80.43
2017-04-14T05:50:03.516Z,80.62
2017-04-14T06:00:02.741Z,81.41
2017-04-14T06:05:03.533Z,81.6
2017-04-14T06:10:03.538Z,81.88
2017-04-14T06:15:03.316Z,81.79
2017-04-14T06:20:03.120Z,81.88
2017-04-14T06:25:02.706Z,81.98
2017-04-14T06:30:03.522Z,82.17
2017-04-14T06:35:03.183Z,82.46
2017-04-14T06:40:02.837Z,82.84
2017-04-14T06:45:03.494Z,83.5
2017-04-14T06:50:03.248Z,84.3
2017-04-14T06:55:02.985Z,84.49
2017-04-14T07:00:02.793Z,85.06
2017-04-14T07:05:03.526Z,85.91
2017-04-14T07:10:03.284Z,86.2
2017-04-14T07:15:02.924Z,86.11
2017-04-14T07:20:02.781Z,86.77
2017-04-14T07:25:03.585Z,87.15
2017-04-14T07:30:03.684Z,87.82
2017-04-14T07:35:03.416Z,88.39
2017-04-14T07:40:03.216Z,88.48
2017-04-14T07:45:03.036Z,88.43
2017-04-14T07:50:03.704Z,89.38
2017-04-14T07:55:03.635Z,89.67
2017-04-14T08:00:03.304Z,89.28
2017-04-14T08:05:02.960Z,89.86
2017-04-14T08:10:03.778Z,91.56
2017-04-14T08:15:03.735Z,92.85
2017-04-14T08:20:03.552Z,92.27
2017-04-14T08:25:03.145Z,93.23
2017-04-14T08:30:03.723Z,93.89
2017-04-14T08:35:03.378Z,93.13
2017-04-14T08:40:03.394Z,95.36
2017-04-14T08:45:03.225Z,95.65
2017-04-14T08:50:02.876Z,96.89
2017-04-14T08:55:03.616Z,98.12
2017-04-14T09:00:03.363Z,98.41
2017-04-14T09:05:02.989Z,99.16
2017-04-14T09:10:02.942Z,99.99
2017-04-14T09:15:02.761Z,99.99
2017-04-14T09:20:03.615Z,99.99
2017-04-14T09:25:03.549Z,99.99
2017-04-14T09:30:03.408Z,99.99
2017-04-14T09:35:03.191Z,99.99
2017-04-14T09:40:02.885Z,99.99
2017-04-14T09:45:03.596Z,99.99
2017-04-14T09:50:03.223Z,99.99
2017-04-14T09:55:03.090Z,99.99
2017-04-14T10:00:02.833Z,99.99
2017-04-14T10:05:03.470Z,99.99
2017-04-14T10:10:03.482Z,99.99
2017-04-14T10:15:03.153Z,99.99
2017-04-14T10:20:03.035Z,99.99
2017-04-14T10:25:02.788Z,99.99
2017-04-14T10:30:03.631Z,99.99
2017-04-14T10:35:03.329Z,99.99
2017-04-14T10:40:03.211Z,99.99
2017-04-14T10:45:02.838Z,99.99
2017-04-14T10:50:03.549Z,99.99
2017-04-14T10:55:03.342Z,99.99
2017-04-14T11:00:03.120Z,99.99
2017-04-14T11:05:02.932Z,99.99
2017-04-14T11:10:02.864Z,99.99
2017-04-14T11:15:03.722Z,99.99
2017-04-14T11:20:03.475Z,99.99
2017-04-14T11:25:03.489Z,99.99
2017-04-14T11:30:03.277Z,99.99
2017-04-14T11:35:03.022Z,99.99
2017-04-14T11:40:02.877Z,99.99
2017-04-14T11:45:03.738Z,99.99
2017-04-14T11:50:03.581Z,99.99
2017-04-14T11:55:03.310Z,99.99
2017-04-14T12:00:02.973Z,99.99
2017-04-14T12:05:03.027Z,99.99
2017-04-14T12:10:02.750Z,99.99
2017-04-14T12:15:03.630Z,99.99
2017-04-14T12:20:03.544Z,99.99
2017-04-14T12:25:03.261Z,99.99
2017-04-14T12:30:03.154Z,99.99
2017-04-14T12:35:02.831Z,99.99
2017-04-14T12:40:03.723Z,99.99
2017-04-14T12:45:03.707Z,99.99
2017-04-14T12:50:03.400Z,99.99
2017-04-14T12:55:03.494Z,99.99
2017-04-14T13:00:03.537Z,99.99
2017-04-14T13:05:03.602Z,99.99
2017-04-14T13:10:03.046Z,99.99
2017-04-14T13:15:03.595Z,99.99
2017-04-14T13:20:03.403Z,99.99
2017-04-14T13:25:03.143Z,99.99
2017-04-14T13:30:03.533Z,99.99
2017-04-14T13:35:02.830Z,99.99
2017-04-14T13:40:03.417Z,99.99
2017-04-14T13:45:03.238Z,99.99
2017-04-14T13:50:03.196Z,99.99
2017-04-14T13:55:03.461Z,99.99
2017-04-14T14:00:03.533Z,99.99
2017-04-14T14:05:03.519Z,99.99
2017-04-14T14:10:03.096Z,99.99
2017-04-14T14:15:03.341Z,99.99
2017-04-14T14:20:03.223Z,99.99
2017-04-14T14:25:03.323Z,99.99
2017-04-14T14:30:02.727Z,99.99
2017-04-14T14:35:03.730Z,99.99
2017-04-14T14:40:03.761Z,99.99
2017-04-14T14:45:03.595Z,99.99
2017-04-14T14:50:03.686Z,99.99
2017-04-14T14:55:03.526Z,99.99
2017-04-14T15:00:03.455Z,99.99
2017-04-14T15:05:03.291Z,99.99
2017-04-14T15:10:03.022Z,99.99
2017-04-14T15:15:02.833Z,99.99
2017-04-14T15:20:03.784Z,99.99
2017-04-14T15:25:03.546Z,99.99
2017-04-14T15:30:03.611Z,99.99
2017-04-14T15:35:03.397Z,99.99
2017-04-14T15:40:03.243Z,99.99
2017-04-14T15:45:02.944Z,99.99
2017-04-14T15:50:02.779Z,99.99
2017-04-14T15:55:03.674Z,99.99
2017-04-14T16:00:03.449Z,99.99
2017-04-14T16:05:03.145Z,99.99
2017-04-14T16:10:02.836Z,99.99
2017-04-14T16:15:03.670Z,99.99
2017-04-14T16:20:03.510Z,99.99
2017-04-14T16:25:03.356Z,99.99
2017-04-14T16:30:03.190Z,99.99
2017-04-14T16:35:02.864Z,99.99
2017-04-14T16:40:03.691Z,99.99
2017-04-14T16:45:03.393Z,99.99
2017-04-14T16:50:03.114Z,99.99
2017-04-14T16:55:02.840Z,99.99
2017-04-14T17:00:03.470Z,99.99
2017-04-14T17:05:03.287Z,99.99
2017-04-14T17:10:02.996Z,99.99
2017-04-14T17:15:02.914Z,99.99
2017-04-14T17:20:03.692Z,99.99
2017-04-14T17:25:03.344Z,99.99
2017-04-14T17:30:03.075Z,99.99
2017-04-14T17:35:02.740Z,99.99
2017-04-14T17:40:03.484Z,99.99
2017-04-14T17:45:03.308Z,99.99
2017-04-14T17:50:03.272Z,99.99
2017-04-14T17:55:03.029Z,99.99
2017-04-14T18:00:03.850Z,99.99
2017-04-14T18:05:03.456Z,99.99
2017-04-14T18:10:03.369Z,99.99
2017-04-14T18:15:03.025Z,99.99
2017-04-14T18:20:03.780Z,99.99
2017-04-14T18:25:03.601Z,99.99
2017-04-14T18:30:03.358Z,99.99
2017-04-14T18:35:03.162Z,99.99
2017-04-14T18:40:02.996Z,99.99
2017-04-14T18:45:03.875Z,99.99
2017-04-14T18:50:03.703Z,99.99
2017-04-14T18:55:03.628Z,99.99
2017-04-14T19:00:03.653Z,99.99
2017-04-14T19:05:03.430Z,99.99
2017-04-14T19:10:03.301Z,99.99
2017-04-14T19:15:03.190Z,99.99
2017-04-14T19:20:02.887Z,99.99
2017-04-14T19:25:03.560Z,99.99
2017-04-14T19:30:03.343Z,99.99
2017-04-14T19:35:03.094Z,99.99
2017-04-14T19:40:02.922Z,99.99
2017-04-14T19:45:02.966Z,99.99
2017-04-14T19:50:03.707Z,99.99
2017-04-14T19:55:03.423Z,99.99
2017-04-14T20:00:03.103Z,99.99
2017-04-14T20:05:02.927Z,99.99
2017-04-14T20:10:03.727Z,99.99
2017-04-14T20:15:03.354Z,99.99
2017-04-14T20:20:03.073Z,99.99
2017-04-14T20:25:02.793Z,99.99
2017-04-14T20:30:03.618Z,99.99
2017-04-14T20:35:03.547Z,99.99
2017-04-14T20:40:03.192Z,99.99
2017-04-14T20:45:02.999Z,99.99
2017-04-14T20:50:02.802Z,99.99
2017-04-14T20:55:03.533Z,99.99
2017-04-14T21:00:03.279Z,99.99
2017-04-14T21:05:02.935Z,99.99
2017-04-14T21:10:03.074Z,99.99
2017-04-14T21:15:03.000Z,99.99
2017-04-14T21:20:02.917Z,99.99
2017-04-14T21:25:02.922Z,99.99
2017-04-14T21:30:03.556Z,99.99
2017-04-14T21:35:03.486Z,99.99
2017-04-14T21:40:03.327Z,99.99
2017-04-14T21:45:02.977Z,99.99
2017-04-14T21:50:03.656Z,99.99
2017-04-14T21:55:03.454Z,99.99
2017-04-14T22:00:18.292Z,99.99
2017-04-14T22:05:17.988Z,99.99
2017-04-14T22:10:02.826Z,99.99
2017-04-14T22:15:03.853Z,99.99
2017-04-14T22:20:03.537Z,99.99
2017-04-14T22:25:03.459Z,99.99
2017-04-14T22:30:03.030Z,99.99
2017-04-14T22:35:02.779Z,99.99
2017-04-14T22:40:03.512Z,99.99
2017-04-14T22:45:03.169Z,99.99
2017-04-14T22:50:03.088Z,99.99
2017-04-14T22:55:03.867Z,99.99
2017-04-14T23:00:03.545Z,99.99
2017-04-14T23:05:03.243Z,99.99
2017-04-14T23:10:18.265Z,99.99
2017-04-14T23:15:03.015Z,99.99
2017-04-14T23:20:02.802Z,99.99
2017-04-14T23:25:03.544Z,99.99
2017-04-14T23:30:03.303Z,99.99
2017-04-14T23:35:03.188Z,99.99
2017-04-14T23:40:02.977Z,99.99
2017-04-14T23:45:03.795Z,99.99
2017-04-14T23:50:03.797Z,99.99
2017-04-14T23:55:03.436Z,99.99
